createdAt,value
2022-11-01T00:00:33.250Z,100540.72
2022-11-01T00:03:18.194Z,100534.81
2022-11-01T00:06:03.621Z,100529.22
2022-11-01T00:08:48.746Z,100516.09
2022-11-01T00:11:34.371Z,100511.31
2022-11-01T00:14:19.824Z,100502.91
2022-11-01T00:17:05.471Z,100490.94
2022-11-01T00:19:50.585Z,100485.22
2022-11-01T00:22:35.758Z,100471.44
2022-11-01T00:25:20.558Z,100467.28
2022-11-01T00:28:05.711Z,100438.66
2022-11-01T00:30:55.505Z,100440.53
2022-11-01T00:33:40.752Z,100446.06
2022-11-01T00:36:25.948Z,100480.22
2022-11-01T00:39:14.988Z,100513.31
2022-11-01T00:41:59.886Z,100508.34
2022-11-01T00:44:45.111Z,100502.19
2022-11-01T00:47:30.133Z,100497.03
2022-11-01T00:50:15.507Z,100491.25
2022-11-01T00:53:00.557Z,100502.97
2022-11-01T00:55:45.886Z,100510.91
2022-11-01T00:58:31.380Z,100515.84
2022-11-01T01:01:16.673Z,100515.91
2022-11-01T01:04:01.657Z,100513.84
2022-11-01T01:06:46.690Z,100506.53
2022-11-01T01:09:32.023Z,100510.63
2022-11-01T01:12:17.117Z,100512.53
2022-11-01T01:15:02.739Z,100512.94
2022-11-01T01:17:48.173Z,100511.47
2022-11-01T01:20:33.227Z,100508.56
2022-11-01T01:23:18.345Z,100506.53
2022-11-01T01:26:08.147Z,100498.06
2022-11-01T01:28:54.012Z,100506.72
2022-11-01T01:31:39.298Z,100502.81
2022-11-01T01:34:24.062Z,100501.19
2022-11-01T01:37:09.879Z,100492.53
2022-11-01T01:39:54.947Z,100487.19
2022-11-01T01:42:42.445Z,100484.75
2022-11-01T01:45:29.704Z,100476.47
2022-11-01T01:48:27.209Z,100477.13
2022-11-01T01:51:16.291Z,100473.22
2022-11-01T01:54:01.230Z,100468.06
2022-11-01T01:56:46.692Z,100476.72
2022-11-01T01:59:32.661Z,100482.22
2022-11-01T02:02:20.253Z,100490.22
2022-11-01T02:05:35.301Z,100493.13
2022-11-01T02:08:27.585Z,100499.09
2022-11-01T02:11:14.717Z,100491.72
2022-11-01T02:14:00.517Z,100484.28
2022-11-01T02:17:38.172Z,100483.06
2022-11-01T02:20:32.075Z,100489.91
2022-11-01T02:23:41.630Z,100498.94
2022-11-01T02:26:45.264Z,100502.63
2022-11-01T02:30:00.643Z,100494.41
2022-11-01T02:33:01.993Z,100497.09
2022-11-01T02:36:07.915Z,100493.81
2022-11-01T02:39:01.075Z,100490.50
2022-11-01T02:41:55.914Z,100497.09
2022-11-01T02:44:49.791Z,100496.28
2022-11-01T02:47:35.569Z,100502.66
2022-11-01T02:50:21.238Z,100486.16
2022-11-01T02:53:06.992Z,100504.69
2022-11-01T02:55:53.417Z,100495.22
2022-11-01T02:58:39.170Z,100496.25
2022-11-01T03:01:27.790Z,100496.66
2022-11-01T03:04:12.560Z,100507.75
2022-11-01T03:07:00.990Z,100500.16
2022-11-01T03:09:45.941Z,100508.13
2022-11-01T03:12:40.789Z,100496.06
2022-11-01T03:15:33.734Z,100505.09
2022-11-01T03:18:27.196Z,100510.59
2022-11-01T03:21:19.154Z,100514.50
2022-11-01T03:24:27.483Z,100518.34
2022-11-01T03:27:21.625Z,100516.13
2022-11-01T03:30:11.317Z,100512.41
2022-11-01T03:32:58.021Z,100513.22
2022-11-01T03:35:47.506Z,100510.38
2022-11-01T03:38:36.293Z,100527.44
2022-11-01T03:41:24.217Z,100523.75
2022-11-01T03:44:12.682Z,100532.56
2022-11-01T03:46:57.430Z,100527.44
2022-11-01T03:49:42.549Z,100529.69
2022-11-01T03:52:27.851Z,100540.84
2022-11-01T03:55:20.186Z,100528.88
2022-11-01T03:58:05.266Z,100536.53
2022-11-01T04:00:50.796Z,100535.13
2022-11-01T04:03:36.310Z,100534.66
2022-11-01T04:06:21.500Z,100546.59
2022-11-01T04:09:06.589Z,100548.44
2022-11-01T04:11:51.473Z,100543.53
2022-11-01T04:14:55.449Z,100547.00
2022-11-01T04:17:59.305Z,100551.13
2022-11-01T04:20:44.467Z,100556.47
2022-11-01T04:23:29.738Z,100569.84
2022-11-01T04:26:20.683Z,100576.81
2022-11-01T04:29:05.537Z,100581.75
2022-11-01T04:31:50.681Z,100579.69
2022-11-01T04:34:44.688Z,100583.59
2022-11-01T04:37:31.409Z,100590.19
2022-11-01T04:40:16.668Z,100593.69
2022-11-01T04:43:01.601Z,100595.53
2022-11-01T04:45:54.583Z,100600.25
2022-11-01T04:48:39.953Z,100603.16
2022-11-01T04:51:25.033Z,100608.28
2022-11-01T04:54:09.822Z,100620.19
2022-11-01T04:56:54.914Z,100611.13
2022-11-01T04:59:40.044Z,100615.41
2022-11-01T05:02:25.038Z,100625.03
2022-11-01T05:05:11.342Z,100627.84
2022-11-01T05:08:14.780Z,100638.25
2022-11-01T05:10:59.709Z,100634.84
2022-11-01T05:13:44.953Z,100643.06
2022-11-01T05:16:30.117Z,100644.84
2022-11-01T05:19:16.026Z,100641.75
2022-11-01T05:22:01.082Z,100640.50
2022-11-01T05:24:46.286Z,100645.22
2022-11-01T05:27:31.450Z,100651.84
2022-11-01T05:30:16.553Z,100655.09
2022-11-01T05:33:02.562Z,100663.22
2022-11-01T05:35:47.603Z,100666.72
2022-11-01T05:38:32.734Z,100671.78
2022-11-01T05:41:17.586Z,100676.81
2022-11-01T05:44:03.288Z,100688.72
2022-11-01T05:46:48.313Z,100685.16
2022-11-01T05:49:33.382Z,100694.50
2022-11-01T05:52:18.234Z,100704.22
2022-11-01T05:55:04.064Z,100707.13
2022-11-01T05:57:49.222Z,100714.28
2022-11-01T06:00:34.583Z,100711.34
2022-11-01T06:03:19.706Z,100709.63
2022-11-01T06:06:05.206Z,100721.63
2022-11-01T06:08:50.135Z,100730.72
2022-11-01T06:11:40.566Z,100729.31
2022-11-01T06:14:26.802Z,100732.03
2022-11-01T06:17:13.313Z,100740.44
2022-11-01T06:19:58.578Z,100744.69
2022-11-01T06:22:43.807Z,100747.00
2022-11-01T06:25:28.673Z,100746.75
2022-11-01T06:28:13.546Z,100758.97
2022-11-01T06:31:03.242Z,100765.69
2022-11-01T06:33:51.119Z,100775.47
2022-11-01T06:36:36.082Z,100787.19
2022-11-01T06:39:20.923Z,100791.25
2022-11-01T06:42:06.273Z,100798.97
2022-11-01T06:44:51.111Z,100804.47
2022-11-01T06:50:26.374Z,100816.25
2022-11-01T06:53:11.592Z,100830.81
2022-11-01T06:56:01.482Z,100836.53
2022-11-01T06:58:50.108Z,100844.19
2022-11-01T07:01:35.444Z,100837.91
2022-11-01T07:04:23.989Z,100846.47
2022-11-01T07:07:08.755Z,100859.94
2022-11-01T07:09:54.022Z,100866.00
2022-11-01T07:12:39.155Z,100877.44
2022-11-01T07:15:23.932Z,100880.78
2022-11-01T07:18:09.333Z,100891.63
2022-11-01T07:20:54.188Z,100911.97
2022-11-01T07:23:39.392Z,100919.34
2022-11-01T07:26:24.213Z,100919.34
2022-11-01T07:29:09.544Z,100925.31
2022-11-01T07:31:54.496Z,100927.44
2022-11-01T07:34:39.712Z,100937.66
2022-11-01T07:37:28.991Z,100947.69
2022-11-01T07:40:13.977Z,100947.13
2022-11-01T07:43:00.418Z,100953.50
2022-11-01T07:45:45.494Z,100955.13
2022-11-01T07:48:30.451Z,100964.53
2022-11-01T07:51:15.601Z,100979.22
2022-11-01T07:56:50.332Z,100985.00
2022-11-01T07:59:35.433Z,100985.75
2022-11-01T08:02:20.626Z,100996.41
2022-11-01T08:05:06.314Z,100996.47
2022-11-01T08:07:51.197Z,100995.44
2022-11-01T08:10:37.297Z,100997.75
2022-11-01T08:13:24.241Z,101007.16
2022-11-01T08:16:09.215Z,101006.31
2022-11-01T08:18:54.414Z,101006.75
2022-11-01T08:21:39.492Z,101006.47
2022-11-01T08:24:24.297Z,101009.97
2022-11-01T08:27:09.454Z,101021.47
2022-11-01T08:29:54.637Z,101018.09
2022-11-01T08:32:40.053Z,101034.88
2022-11-01T08:35:25.091Z,101034.22
2022-11-01T08:38:10.293Z,101034.88
2022-11-01T08:40:55.681Z,101029.22
2022-11-01T08:43:40.904Z,101027.16
2022-11-01T08:46:25.769Z,101041.84
2022-11-01T08:49:11.842Z,101042.34
2022-11-01T08:51:57.008Z,101053.66
2022-11-01T08:54:42.002Z,101059.28
2022-11-01T08:57:27.213Z,101057.91
2022-11-01T09:00:13.677Z,101064.84
2022-11-01T09:02:58.576Z,101074.78
2022-11-01T09:05:43.813Z,101076.38
2022-11-01T09:08:28.957Z,101082.72
2022-11-01T09:11:14.365Z,101079.34
2022-11-01T09:13:59.145Z,101083.59
2022-11-01T09:16:44.244Z,101081.25
2022-11-01T09:19:29.418Z,101078.66
2022-11-01T09:22:14.288Z,101088.53
2022-11-01T09:24:59.492Z,101078.97
2022-11-01T09:27:44.626Z,101080.66
2022-11-01T09:30:30.322Z,101082.81
2022-11-01T09:33:15.029Z,101077.94
2022-11-01T09:36:00.534Z,101075.28
2022-11-01T09:38:45.297Z,101071.75
2022-11-01T09:41:47.180Z,101073.44
2022-11-01T09:44:37.284Z,101079.91
2022-11-01T09:47:25.772Z,101074.88
2022-11-01T09:50:27.663Z,101082.63
2022-11-01T09:53:18.838Z,101074.84
2022-11-01T09:56:30.298Z,101078.81
2022-11-01T09:59:24.700Z,101088.72
2022-11-01T10:02:46.025Z,101092.16
2022-11-01T10:05:59.835Z,101082.81
2022-11-01T10:09:09.292Z,101091.03
2022-11-01T10:12:22.730Z,101100.47
2022-11-01T10:15:32.612Z,101105.88
2022-11-01T10:18:31.290Z,101102.81
2022-11-01T10:21:17.031Z,101112.56
2022-11-01T10:24:07.127Z,101111.91
2022-11-01T10:26:59.539Z,101105.88
2022-11-01T10:29:50.156Z,101103.06
2022-11-01T10:32:42.875Z,101112.50
2022-11-01T10:35:37.303Z,101107.53
2022-11-01T10:39:36.994Z,101111.56
2022-11-01T10:41:51.141Z,101104.47
2022-11-01T10:44:43.224Z,101113.06
2022-11-01T10:47:28.961Z,101122.22
2022-11-01T10:50:18.307Z,101118.34
2022-11-01T10:53:08.018Z,101120.16
2022-11-01T10:55:59.597Z,101129.91
2022-11-01T10:59:00.466Z,101111.25
2022-11-01T11:01:47.677Z,101104.66
2022-11-01T11:04:33.043Z,101110.56
2022-11-01T11:07:21.685Z,101112.44
2022-11-01T11:10:23.847Z,101108.59
2022-11-01T11:13:10.461Z,101114.44
2022-11-01T11:16:05.225Z,101099.56
2022-11-01T11:19:01.335Z,101112.66
2022-11-01T11:21:51.490Z,101120.78
2022-11-01T11:24:43.690Z,101100.38
2022-11-01T11:27:30.667Z,101109.44
2022-11-01T11:30:48.259Z,101102.56
2022-11-01T11:33:33.420Z,101110.72
2022-11-01T11:36:28.383Z,101097.31
2022-11-01T11:39:58.781Z,101099.19
2022-11-01T11:42:45.801Z,101091.47
2022-11-01T11:45:31.225Z,101095.81
2022-11-01T11:48:21.787Z,101093.69
2022-11-01T11:51:06.926Z,101095.19
2022-11-01T11:54:14.745Z,101088.63
2022-11-01T11:57:24.777Z,101096.09
2022-11-01T12:00:23.415Z,101088.56
2022-11-01T12:03:12.758Z,101089.34
2022-11-01T12:06:07.013Z,101085.94
2022-11-01T12:08:56.848Z,101091.88
2022-11-01T12:11:45.987Z,101104.81
2022-11-01T12:14:36.458Z,101099.75
2022-11-01T12:17:32.693Z,101099.16
2022-11-01T12:20:25.408Z,101088.53
2022-11-01T12:23:19.148Z,101092.59
2022-11-01T12:26:13.877Z,101103.31
2022-11-01T12:29:13.196Z,101104.75
2022-11-01T12:32:04.680Z,101100.16
2022-11-01T12:34:52.099Z,101097.19
2022-11-01T12:38:12.884Z,101097.19
2022-11-01T12:41:02.366Z,101095.78
2022-11-01T12:44:01.230Z,101085.13
2022-11-01T12:46:50.350Z,101090.22
2022-11-01T12:49:55.623Z,101082.09
2022-11-01T12:52:49.819Z,101082.88
2022-11-01T12:55:37.538Z,101080.34
2022-11-01T12:58:23.213Z,101081.63
2022-11-01T13:01:11.211Z,101075.19
2022-11-01T13:04:10.948Z,101081.31
2022-11-01T13:07:07.777Z,101082.34
2022-11-01T13:10:13.781Z,101080.03
2022-11-01T13:13:23.661Z,101082.25
2022-11-01T13:16:17.834Z,101087.53
2022-11-01T13:19:23.309Z,101092.63
2022-11-01T13:22:28.032Z,101087.81
2022-11-01T13:25:42.024Z,101092.25
2022-11-01T13:29:05.714Z,101077.63
2022-11-01T13:32:33.921Z,101076.97
2022-11-01T13:35:34.134Z,101084.00
2022-11-01T13:38:35.117Z,101090.06
2022-11-01T13:41:39.098Z,101088.84
2022-11-01T13:44:27.967Z,101089.56
2022-11-01T13:47:21.655Z,101084.38
2022-11-01T13:50:15.401Z,101091.63
2022-11-01T13:53:15.346Z,101095.03
2022-11-01T13:56:15.387Z,101097.28
2022-11-01T13:59:00.861Z,101098.72
2022-11-01T14:01:45.769Z,101092.16
2022-11-01T14:04:33.813Z,101102.41
2022-11-01T14:07:18.630Z,101094.41
2022-11-01T14:10:30.480Z,101089.00
2022-11-01T14:13:37.177Z,101090.13
2022-11-01T14:16:22.585Z,101100.50
2022-11-01T14:19:19.127Z,101102.19
2022-11-01T14:22:32.233Z,101103.16
2022-11-01T14:25:17.183Z,101112.53
2022-11-01T14:28:17.107Z,101113.56
2022-11-01T14:31:01.999Z,101111.00
2022-11-01T14:33:48.405Z,101109.44
2022-11-01T14:36:36.352Z,101117.22
2022-11-01T14:39:29.367Z,101113.81
2022-11-01T14:42:23.059Z,101115.41
2022-11-01T14:45:28.113Z,101112.47
2022-11-01T14:48:27.970Z,101119.28
2022-11-01T14:51:35.434Z,101122.22
2022-11-01T14:54:50.177Z,101123.91
2022-11-01T14:57:35.460Z,101127.25
2022-11-01T15:00:31.890Z,101115.25
2022-11-01T15:03:18.135Z,101120.31
2022-11-01T15:06:04.641Z,101123.34
2022-11-01T15:08:49.630Z,101126.13
2022-11-01T15:11:35.044Z,101123.34
2022-11-01T15:14:34.647Z,101124.94
2022-11-01T15:17:31.276Z,101128.13
2022-11-01T15:20:18.024Z,101130.03
2022-11-01T15:23:07.687Z,101129.13
2022-11-01T15:25:54.336Z,101131.84
2022-11-01T15:28:42.913Z,101137.75
2022-11-01T15:31:29.032Z,101133.28
2022-11-01T15:34:23.293Z,101137.72
2022-11-01T15:37:20.850Z,101137.50
2022-11-01T15:40:27.560Z,101129.28
2022-11-01T15:43:39.470Z,101119.16
2022-11-01T15:46:28.990Z,101134.53
2022-11-01T15:49:25.718Z,101136.84
2022-11-01T15:52:27.367Z,101127.94
2022-11-01T15:55:44.023Z,101132.44
2022-11-01T15:58:39.575Z,101120.63
2022-11-01T16:01:25.609Z,101133.09
2022-11-01T16:04:14.782Z,101130.19
2022-11-01T16:07:04.433Z,101130.41
2022-11-01T16:09:54.886Z,101131.72
2022-11-01T16:12:44.664Z,101128.22
2022-11-01T16:15:31.584Z,101131.44
2022-11-01T16:18:23.787Z,101134.59
2022-11-01T16:21:20.619Z,101128.16
2022-11-01T16:24:15.534Z,101131.22
2022-11-01T16:27:06.092Z,101128.91
2022-11-01T16:29:51.346Z,101132.44
2022-11-01T16:32:36.790Z,101137.16
2022-11-01T16:35:33.558Z,101141.31
2022-11-01T16:38:22.953Z,101147.31
2022-11-01T16:41:17.310Z,101147.84
2022-11-01T16:44:12.615Z,101154.19
2022-11-01T16:46:57.671Z,101160.00
2022-11-01T16:49:47.414Z,101160.69
2022-11-01T16:52:33.765Z,101162.00
2022-11-01T16:55:20.471Z,101153.00
2022-11-01T16:58:16.222Z,101161.84
2022-11-01T17:01:01.353Z,101169.50
2022-11-01T17:03:47.142Z,101164.00
2022-11-01T17:06:36.189Z,101169.00
2022-11-01T17:09:24.617Z,101169.34
2022-11-01T17:12:11.347Z,101162.38
2022-11-01T17:14:56.313Z,101172.63
2022-11-01T17:17:43.973Z,101178.78
2022-11-01T17:20:29.151Z,101176.81
2022-11-01T17:23:18.143Z,101183.44
2022-11-01T17:26:05.036Z,101185.44
2022-11-01T17:28:52.464Z,101186.91
2022-11-01T17:31:37.589Z,101185.53
2022-11-01T17:34:24.001Z,101195.16
2022-11-01T17:37:15.044Z,101196.94
2022-11-01T17:40:00.802Z,101196.44
2022-11-01T17:42:46.474Z,101196.13
2022-11-01T17:45:31.574Z,101192.56
2022-11-01T17:48:17.414Z,101199.22
2022-11-01T17:51:02.454Z,101200.72
2022-11-01T17:53:52.666Z,101196.88
2022-11-01T17:56:37.907Z,101200.06
2022-11-01T17:59:23.018Z,101196.25
2022-11-01T18:02:09.966Z,101195.47
2022-11-01T18:04:55.057Z,101193.13
2022-11-01T18:07:47.477Z,101196.59
2022-11-01T18:10:40.960Z,101198.69
2022-11-01T18:13:31.017Z,101195.22
2022-11-01T18:16:27.529Z,101199.47
2022-11-01T18:19:34.474Z,101199.28
2022-11-01T18:22:52.989Z,101198.00
2022-11-01T18:25:44.893Z,101191.44
2022-11-01T18:28:32.239Z,101181.97
2022-11-01T18:31:25.975Z,101188.50
2022-11-01T18:34:46.528Z,101194.03
2022-11-01T18:37:42.226Z,101195.78
2022-11-01T18:40:40.762Z,101202.00
2022-11-01T18:43:39.290Z,101200.72
2022-11-01T18:46:27.329Z,101198.69
2022-11-01T18:49:12.750Z,101204.44
2022-11-01T18:51:58.115Z,101194.78
2022-11-01T18:54:56.301Z,101190.41
2022-11-01T18:57:41.934Z,101192.47
2022-11-01T19:00:27.431Z,101193.28
2022-11-01T19:03:14.981Z,101195.03
2022-11-01T19:06:20.864Z,101187.16
2022-11-01T19:09:24.209Z,101198.84
2022-11-01T19:12:15.904Z,101194.31
2022-11-01T19:15:18.935Z,101200.59
2022-11-01T19:18:15.493Z,101204.38
2022-11-01T19:21:00.750Z,101200.34
2022-11-01T19:23:49.337Z,101201.13
2022-11-01T19:26:37.023Z,101199.69
2022-11-01T19:29:25.917Z,101200.25
2022-11-01T19:32:15.727Z,101197.91
2022-11-01T19:35:00.706Z,101195.97
2022-11-01T19:37:47.292Z,101191.38
2022-11-01T19:40:34.725Z,101187.31
2022-11-01T19:43:23.092Z,101176.22
2022-11-01T19:46:13.022Z,101185.94
2022-11-01T19:48:58.143Z,101185.88
2022-11-01T19:51:43.093Z,101180.66
2022-11-01T19:54:35.310Z,101176.97
2022-11-01T19:57:34.452Z,101184.75
2022-11-01T20:00:21.637Z,101177.38
2022-11-01T20:03:23.666Z,101168.53
2022-11-01T20:06:29.866Z,101172.28
2022-11-01T20:09:25.703Z,101166.84
2022-11-01T20:12:11.388Z,101168.81
2022-11-01T20:14:56.313Z,101178.47
2022-11-01T20:17:41.342Z,101180.66
2022-11-01T20:20:26.455Z,101177.47
2022-11-01T20:23:25.764Z,101172.88
2022-11-01T20:26:12.146Z,101172.09
2022-11-01T20:28:57.091Z,101167.91
2022-11-01T20:31:42.164Z,101170.81
2022-11-01T20:34:28.621Z,101172.34
2022-11-01T20:37:29.401Z,101175.28
2022-11-01T20:40:15.197Z,101177.53
2022-11-01T20:43:00.586Z,101177.38
2022-11-01T20:45:45.964Z,101178.97
2022-11-01T20:48:31.105Z,101181.63
2022-11-01T20:51:15.956Z,101178.56
2022-11-01T20:54:01.075Z,101178.34
2022-11-01T20:56:46.268Z,101175.59
2022-11-01T20:59:31.430Z,101193.56
2022-11-01T21:02:19.262Z,101181.47
2022-11-01T21:05:30.276Z,101175.31
2022-11-01T21:08:24.266Z,101170.81
2022-11-01T21:11:19.647Z,101172.41
2022-11-01T21:14:12.964Z,101174.31
2022-11-01T21:16:58.949Z,101171.19
2022-11-01T21:19:49.202Z,101167.97
2022-11-01T21:22:34.075Z,101168.34
2022-11-01T21:25:22.458Z,101171.41
2022-11-01T21:28:29.842Z,101172.75
2022-11-01T21:31:14.746Z,101174.75
2022-11-01T21:34:09.873Z,101173.88
2022-11-01T21:36:56.853Z,101169.94
2022-11-01T21:39:41.657Z,101179.59
2022-11-01T21:42:32.916Z,101168.09
2022-11-01T21:45:32.010Z,101166.59
2022-11-01T21:48:26.199Z,101161.97
2022-11-01T21:51:11.257Z,101168.81
2022-11-01T21:54:00.104Z,101170.66
2022-11-01T21:56:48.925Z,101162.69
2022-11-01T21:59:34.551Z,101163.22
2022-11-01T22:02:19.576Z,101169.41
2022-11-01T22:05:05.048Z,101170.34
2022-11-01T22:07:50.240Z,101172.53
2022-11-01T22:10:35.350Z,101170.03
2022-11-01T22:13:20.227Z,101162.56
2022-11-01T22:16:06.299Z,101165.88
2022-11-01T22:18:51.418Z,101162.38
2022-11-01T22:21:36.771Z,101156.22
2022-11-01T22:24:21.637Z,101152.59
2022-11-01T22:27:06.582Z,101148.13
2022-11-01T22:29:51.658Z,101144.28
2022-11-01T22:32:36.885Z,101139.94
2022-11-01T22:35:21.700Z,101132.97
2022-11-01T22:38:19.376Z,101142.75
2022-11-01T22:41:22.596Z,101142.16
2022-11-01T22:44:13.554Z,101135.84
2022-11-01T22:47:00.995Z,101140.50
2022-11-01T22:49:53.157Z,101130.72
2022-11-01T22:52:41.813Z,101126.06
2022-11-01T22:55:27.254Z,101124.72
2022-11-01T22:58:31.176Z,101126.06
2022-11-01T23:01:23.654Z,101122.88
2022-11-01T23:04:20.760Z,101123.56
2022-11-01T23:07:23.087Z,101123.91
2022-11-01T23:10:30.690Z,101128.44
2022-11-01T23:13:42.402Z,101121.41
2022-11-01T23:16:34.680Z,101123.75
2022-11-01T23:19:20.032Z,101119.44
2022-11-01T23:22:14.239Z,101118.13
2022-11-01T23:24:59.198Z,101115.34
2022-11-01T23:27:44.844Z,101111.19
2022-11-01T23:30:30.007Z,101111.38
2022-11-01T23:33:17.601Z,101118.19
2022-11-01T23:36:02.996Z,101119.84
2022-11-01T23:38:54.766Z,101117.38
2022-11-01T23:41:44.064Z,101116.22
2022-11-01T23:44:36.538Z,101101.59
2022-11-01T23:47:29.699Z,101100.94
2022-11-01T23:50:22.118Z,101095.13
2022-11-01T23:53:13.175Z,101110.75
2022-11-01T23:55:59.902Z,101110.25
2022-11-01T23:58:44.903Z,101103.28
